createdAt,value
2023-03-06T00:04:20.119Z,997.1
2023-03-06T00:14:26.526Z,997
2023-03-06T00:24:32.841Z,996.9
2023-03-06T00:34:39.160Z,996.8
2023-03-06T00:44:45.543Z,996.7
2023-03-06T00:54:51.827Z,996.6
2023-03-06T01:04:58.208Z,996.4
2023-03-06T01:15:04.549Z,996.4
2023-03-06T01:25:10.903Z,996.3
2023-03-06T01:35:17.278Z,996.2
2023-03-06T01:45:23.604Z,996
2023-03-06T01:55:29.909Z,995.9
2023-03-06T02:05:36.304Z,995.8
2023-03-06T02:15:42.622Z,995.8
2023-03-06T02:25:48.998Z,995.6
2023-03-06T02:35:56.945Z,995.6
2023-03-06T02:46:03.373Z,995.4
2023-03-06T02:56:09.579Z,995.4
2023-03-06T03:06:15.984Z,995.3
2023-03-06T03:16:22.273Z,995.3
2023-03-06T03:26:28.681Z,995.2
2023-03-06T03:36:36.587Z,995.2
2023-03-06T03:46:42.961Z,995.1
2023-03-06T03:56:49.275Z,995.1
2023-03-06T04:06:55.642Z,994.9
2023-03-06T04:17:01.965Z,994.7
2023-03-06T04:27:08.337Z,994.6
2023-03-06T04:37:15.076Z,994.5
2023-03-06T04:47:21.031Z,994.4
2023-03-06T04:57:27.390Z,994.4
2023-03-06T05:07:33.716Z,994.4
2023-03-06T05:17:40.042Z,994.3
2023-03-06T05:27:46.440Z,994.2
2023-03-06T05:37:52.755Z,994.4
2023-03-06T05:47:59.143Z,994.3
2023-03-06T05:58:05.435Z,994.4
2023-03-06T06:08:11.794Z,994.3
2023-03-06T06:18:18.138Z,994.2
2023-03-06T06:28:24.492Z,994.2
2023-03-06T06:38:30.816Z,994.2
2023-03-06T06:48:37.185Z,994.2
2023-03-06T06:58:43.523Z,994.2
2023-03-06T07:08:49.855Z,994.2
2023-03-06T07:18:56.208Z,994.3
2023-03-06T07:29:02.570Z,994.4
2023-03-06T07:39:08.900Z,994.4
2023-03-06T07:49:15.273Z,994.4
2023-03-06T07:59:21.591Z,994.4
2023-03-06T08:09:27.955Z,994.4
2023-03-06T08:19:34.285Z,994.4
2023-03-06T08:29:40.655Z,994.3
2023-03-06T08:39:46.967Z,994.3
2023-03-06T08:49:53.334Z,994.3
2023-03-06T09:00:01.273Z,994.3
2023-03-06T09:10:09.317Z,994.4
2023-03-06T09:20:15.554Z,994.3
2023-03-06T09:30:21.941Z,994.3
2023-03-06T09:40:28.261Z,994.4
2023-03-06T09:50:34.606Z,994.3
2023-03-06T10:00:40.926Z,994.3
2023-03-06T10:10:47.317Z,994.2
2023-03-06T10:20:53.654Z,994.2
2023-03-06T10:31:01.710Z,994.2
2023-03-06T10:41:07.921Z,994.3
2023-03-06T10:51:18.295Z,994.2
2023-03-06T11:01:20.771Z,994.3
2023-03-06T11:11:37.127Z,994.4
2023-03-06T11:21:33.291Z,994.3
2023-03-06T11:31:39.754Z,994.4
2023-03-06T11:41:45.988Z,994.3
2023-03-06T11:51:52.384Z,994.3
2023-03-06T12:01:58.710Z,994.2
2023-03-06T12:12:05.059Z,994.1
2023-03-06T12:22:11.445Z,994.1
2023-03-06T12:32:17.881Z,994
2023-03-06T12:42:25.685Z,993.9
2023-03-06T12:52:32.063Z,993.8
2023-03-06T13:02:38.426Z,993.8
2023-03-06T13:12:44.758Z,993.7
2023-03-06T13:22:51.058Z,993.7
2023-03-06T13:32:57.441Z,993.7
2023-03-06T13:43:03.749Z,993.5
2023-03-06T13:53:10.138Z,993.5
2023-03-06T14:03:16.439Z,993.5
2023-03-06T14:13:22.823Z,993.4
2023-03-06T14:23:29.191Z,993.4
2023-03-06T14:33:35.539Z,993.3
2023-03-06T14:43:43.451Z,993.3
2023-03-06T14:53:49.813Z,993.2
2023-03-06T15:03:56.121Z,993.1
2023-03-06T15:14:04.105Z,993.1
2023-03-06T15:24:10.397Z,993
2023-03-06T15:34:16.791Z,993
2023-03-06T15:44:23.108Z,992.9
2023-03-06T15:54:31.874Z,992.9
2023-03-06T16:04:37.779Z,992.8
2023-03-06T16:14:43.763Z,992.7
2023-03-06T16:24:50.084Z,992.6
2023-03-06T16:34:56.481Z,992.5
2023-03-06T16:45:02.781Z,992.5
2023-03-06T16:55:09.138Z,992.4
2023-03-06T17:05:15.467Z,992.4
2023-03-06T17:15:21.836Z,992.3
2023-03-06T17:25:28.157Z,992.2
2023-03-06T17:35:34.536Z,992.2
2023-03-06T17:45:40.842Z,992.2
2023-03-06T17:55:47.205Z,992.2
2023-03-06T18:05:53.526Z,992.1
2023-03-06T18:15:59.956Z,992
2023-03-06T18:26:08.293Z,992.1
2023-03-06T18:36:12.618Z,991.9
2023-03-06T18:46:18.922Z,991.8
2023-03-06T18:56:26.905Z,991.7
2023-03-06T19:06:34.814Z,991.7
2023-03-06T19:16:42.946Z,991.5
2023-03-06T19:26:50.713Z,991.5
2023-03-06T19:36:57.082Z,991.4
2023-03-06T19:47:03.410Z,991.3
2023-03-06T19:57:09.792Z,991.3
2023-03-06T20:07:16.100Z,991.2
2023-03-06T20:17:22.457Z,990.9
2023-03-06T20:27:28.795Z,990.9
2023-03-06T20:37:35.169Z,990.8
2023-03-06T20:47:41.486Z,990.7
2023-03-06T20:57:47.849Z,990.7
2023-03-06T21:07:54.168Z,990.5
2023-03-06T21:18:00.551Z,990.4
2023-03-06T21:28:06.857Z,990.3
2023-03-06T21:38:13.240Z,990.2
2023-03-06T21:48:19.544Z,990
2023-03-06T21:58:25.936Z,989.9
2023-03-06T22:08:33.853Z,989.8
2023-03-06T22:18:41.808Z,989.6
2023-03-06T22:28:49.779Z,989.4
2023-03-06T22:38:56.115Z,989.2
2023-03-06T22:49:02.414Z,989.1
2023-03-06T22:59:08.786Z,988.9
2023-03-06T23:09:16.742Z,988.8
2023-03-06T23:19:24.705Z,988.7
2023-03-06T23:29:32.628Z,988.6
2023-03-06T23:39:40.652Z,988.6
2023-03-06T23:49:46.952Z,988.4
2023-03-06T23:59:53.284Z,988.5
